sensor_id;sensor_type;location;lat;lon;timestamp;P1;durP1;ratioP1;P2;durP2;ratioP2
5674;SDS011;2860;54.284;10.158;2024-01-30T00:00:42;26.77;;;18.33;;
5674;SDS011;2860;54.284;10.158;2024-01-30T00:03:07;28.88;;;20.17;;
5674;SDS011;2860;54.284;10.158;2024-01-30T00:05:33;33.15;;;18.55;;
5674;SDS011;2860;54.284;10.158;2024-01-30T00:07:58;33.33;;;21.00;;
5674;SDS011;2860;54.284;10.158;2024-01-30T00:10:24;37.40;;;21.77;;
5674;SDS011;2860;54.284;10.158;2024-01-30T00:12:49;34.00;;;20.45;;
5674;SDS011;2860;54.284;10.158;2024-01-30T00:15:15;32.72;;;21.25;;
5674;SDS011;2860;54.284;10.158;2024-01-30T00:17:41;34.22;;;20.63;;
5674;SDS011;2860;54.284;10.158;2024-01-30T00:20:06;31.50;;;19.75;;
5674;SDS011;2860;54.284;10.158;2024-01-30T00:22:33;30.98;;;19.80;;
5674;SDS011;2860;54.284;10.158;2024-01-30T00:24:59;36.03;;;20.13;;
5674;SDS011;2860;54.284;10.158;2024-01-30T00:27:25;30.52;;;20.10;;
5674;SDS011;2860;54.284;10.158;2024-01-30T00:29:51;35.97;;;22.33;;
5674;SDS011;2860;54.284;10.158;2024-01-30T00:32:17;35.00;;;20.85;;
5674;SDS011;2860;54.284;10.158;2024-01-30T00:34:44;34.60;;;20.30;;
5674;SDS011;2860;54.284;10.158;2024-01-30T00:37:09;27.83;;;19.98;;
5674;SDS011;2860;54.284;10.158;2024-01-30T00:39:35;33.13;;;20.67;;
5674;SDS011;2860;54.284;10.158;2024-01-30T00:42:00;34.78;;;20.00;;
5674;SDS011;2860;54.284;10.158;2024-01-30T00:44:26;34.50;;;21.48;;
5674;SDS011;2860;54.284;10.158;2024-01-30T00:46:52;26.67;;;19.30;;
5674;SDS011;2860;54.284;10.158;2024-01-30T00:49:17;25.92;;;19.10;;
5674;SDS011;2860;54.284;10.158;2024-01-30T00:51:43;27.75;;;20.33;;
5674;SDS011;2860;54.284;10.158;2024-01-30T00:54:08;30.77;;;20.20;;
5674;SDS011;2860;54.284;10.158;2024-01-30T00:56:34;34.83;;;22.40;;
5674;SDS011;2860;54.284;10.158;2024-01-30T00:58:59;29.77;;;20.40;;
5674;SDS011;2860;54.284;10.158;2024-01-30T01:01:25;35.67;;;22.13;;
5674;SDS011;2860;54.284;10.158;2024-01-30T01:03:50;33.75;;;20.85;;
5674;SDS011;2860;54.284;10.158;2024-01-30T01:06:16;29.52;;;21.25;;
5674;SDS011;2860;54.284;10.158;2024-01-30T01:08:41;33.17;;;22.05;;
5674;SDS011;2860;54.284;10.158;2024-01-30T01:11:07;32.13;;;21.83;;
5674;SDS011;2860;54.284;10.158;2024-01-30T01:13:32;37.83;;;22.50;;
5674;SDS011;2860;54.284;10.158;2024-01-30T01:15:58;33.58;;;22.02;;
5674;SDS011;2860;54.284;10.158;2024-01-30T01:18:23;27.27;;;20.70;;
5674;SDS011;2860;54.284;10.158;2024-01-30T01:20:49;31.27;;;20.08;;
5674;SDS011;2860;54.284;10.158;2024-01-30T01:23:14;31.38;;;22.58;;
5674;SDS011;2860;54.284;10.158;2024-01-30T01:25:40;36.78;;;21.35;;
5674;SDS011;2860;54.284;10.158;2024-01-30T01:28:05;29.98;;;19.88;;
5674;SDS011;2860;54.284;10.158;2024-01-30T01:30:31;30.52;;;19.83;;
5674;SDS011;2860;54.284;10.158;2024-01-30T01:32:56;32.53;;;21.67;;
5674;SDS011;2860;54.284;10.158;2024-01-30T01:35:26;32.55;;;20.83;;
5674;SDS011;2860;54.284;10.158;2024-01-30T01:37:52;28.77;;;20.60;;
5674;SDS011;2860;54.284;10.158;2024-01-30T01:40:26;33.88;;;20.38;;
5674;SDS011;2860;54.284;10.158;2024-01-30T01:42:52;31.83;;;22.20;;
5674;SDS011;2860;54.284;10.158;2024-01-30T01:45:19;32.55;;;20.48;;
5674;SDS011;2860;54.284;10.158;2024-01-30T01:47:45;33.08;;;21.67;;
5674;SDS011;2860;54.284;10.158;2024-01-30T01:50:15;32.65;;;21.00;;
5674;SDS011;2860;54.284;10.158;2024-01-30T01:52:44;34.00;;;20.98;;
5674;SDS011;2860;54.284;10.158;2024-01-30T01:55:12;34.05;;;21.77;;
5674;SDS011;2860;54.284;10.158;2024-01-30T01:57:39;32.35;;;22.05;;
5674;SDS011;2860;54.284;10.158;2024-01-30T02:00:05;32.47;;;21.92;;
5674;SDS011;2860;54.284;10.158;2024-01-30T02:02:32;35.42;;;21.60;;
5674;SDS011;2860;54.284;10.158;2024-01-30T02:05:01;35.55;;;22.70;;
5674;SDS011;2860;54.284;10.158;2024-01-30T02:07:27;29.45;;;21.15;;
5674;SDS011;2860;54.284;10.158;2024-01-30T02:09:53;36.13;;;23.20;;
5674;SDS011;2860;54.284;10.158;2024-01-30T02:12:19;36.50;;;22.02;;
5674;SDS011;2860;54.284;10.158;2024-01-30T02:14:47;32.42;;;22.67;;
5674;SDS011;2860;54.284;10.158;2024-01-30T02:17:14;31.40;;;21.67;;
5674;SDS011;2860;54.284;10.158;2024-01-30T02:19:40;30.90;;;23.02;;
5674;SDS011;2860;54.284;10.158;2024-01-30T02:22:06;32.35;;;22.02;;
5674;SDS011;2860;54.284;10.158;2024-01-30T02:24:32;33.95;;;22.60;;
5674;SDS011;2860;54.284;10.158;2024-01-30T02:26:58;32.85;;;22.25;;
5674;SDS011;2860;54.284;10.158;2024-01-30T02:29:24;32.28;;;22.88;;
5674;SDS011;2860;54.284;10.158;2024-01-30T02:31:49;35.20;;;21.92;;
5674;SDS011;2860;54.284;10.158;2024-01-30T02:34:15;34.40;;;22.25;;
5674;SDS011;2860;54.284;10.158;2024-01-30T02:36:43;27.83;;;21.67;;
5674;SDS011;2860;54.284;10.158;2024-01-30T02:39:09;32.80;;;22.27;;
5674;SDS011;2860;54.284;10.158;2024-01-30T02:41:35;28.30;;;20.50;;
5674;SDS011;2860;54.284;10.158;2024-01-30T02:44:01;33.20;;;21.45;;
5674;SDS011;2860;54.284;10.158;2024-01-30T02:46:30;30.88;;;21.85;;
5674;SDS011;2860;54.284;10.158;2024-01-30T02:48:56;27.58;;;21.13;;
5674;SDS011;2860;54.284;10.158;2024-01-30T02:51:22;31.80;;;22.20;;
5674;SDS011;2860;54.284;10.158;2024-01-30T02:53:47;32.78;;;21.52;;
5674;SDS011;2860;54.284;10.158;2024-01-30T02:56:13;32.55;;;22.58;;
5674;SDS011;2860;54.284;10.158;2024-01-30T02:58:39;30.65;;;22.80;;
5674;SDS011;2860;54.284;10.158;2024-01-30T03:01:05;29.92;;;22.67;;
5674;SDS011;2860;54.284;10.158;2024-01-30T03:03:31;31.35;;;21.20;;
5674;SDS011;2860;54.284;10.158;2024-01-30T03:05:56;32.72;;;22.02;;
5674;SDS011;2860;54.284;10.158;2024-01-30T03:08:22;31.42;;;21.25;;
5674;SDS011;2860;54.284;10.158;2024-01-30T03:10:48;33.08;;;22.33;;
5674;SDS011;2860;54.284;10.158;2024-01-30T03:13:13;29.25;;;19.92;;
5674;SDS011;2860;54.284;10.158;2024-01-30T03:15:39;26.98;;;20.20;;
5674;SDS011;2860;54.284;10.158;2024-01-30T03:18:04;33.28;;;21.23;;
5674;SDS011;2860;54.284;10.158;2024-01-30T03:20:30;32.28;;;22.10;;
5674;SDS011;2860;54.284;10.158;2024-01-30T03:22:56;31.40;;;22.23;;
5674;SDS011;2860;54.284;10.158;2024-01-30T03:25:22;30.75;;;19.45;;
5674;SDS011;2860;54.284;10.158;2024-01-30T03:27:47;31.13;;;22.83;;
5674;SDS011;2860;54.284;10.158;2024-01-30T03:30:13;30.33;;;19.95;;
5674;SDS011;2860;54.284;10.158;2024-01-30T03:32:39;32.67;;;20.70;;
5674;SDS011;2860;54.284;10.158;2024-01-30T03:35:05;27.73;;;21.27;;
5674;SDS011;2860;54.284;10.158;2024-01-30T03:37:30;30.75;;;20.15;;
5674;SDS011;2860;54.284;10.158;2024-01-30T03:39:56;25.05;;;20.52;;
5674;SDS011;2860;54.284;10.158;2024-01-30T03:42:22;28.02;;;19.88;;
5674;SDS011;2860;54.284;10.158;2024-01-30T03:44:47;39.17;;;19.88;;
5674;SDS011;2860;54.284;10.158;2024-01-30T03:47:13;28.25;;;20.55;;
5674;SDS011;2860;54.284;10.158;2024-01-30T03:49:39;24.83;;;20.08;;
5674;SDS011;2860;54.284;10.158;2024-01-30T03:52:05;26.63;;;20.30;;
5674;SDS011;2860;54.284;10.158;2024-01-30T03:54:30;29.27;;;20.33;;
5674;SDS011;2860;54.284;10.158;2024-01-30T03:56:56;30.27;;;20.30;;
5674;SDS011;2860;54.284;10.158;2024-01-30T03:59:21;29.35;;;20.02;;
5674;SDS011;2860;54.284;10.158;2024-01-30T04:01:49;26.48;;;19.35;;
5674;SDS011;2860;54.284;10.158;2024-01-30T04:04:18;30.30;;;21.70;;
5674;SDS011;2860;54.284;10.158;2024-01-30T04:06:44;27.38;;;19.80;;
5674;SDS011;2860;54.284;10.158;2024-01-30T04:09:10;32.00;;;20.35;;
5674;SDS011;2860;54.284;10.158;2024-01-30T04:11:38;32.88;;;20.83;;
5674;SDS011;2860;54.284;10.158;2024-01-30T04:14:03;25.83;;;19.75;;
5674;SDS011;2860;54.284;10.158;2024-01-30T04:16:29;24.45;;;19.40;;
5674;SDS011;2860;54.284;10.158;2024-01-30T04:18:55;25.00;;;20.33;;
5674;SDS011;2860;54.284;10.158;2024-01-30T04:21:21;26.92;;;20.67;;
5674;SDS011;2860;54.284;10.158;2024-01-30T04:23:47;30.88;;;19.92;;
5674;SDS011;2860;54.284;10.158;2024-01-30T04:26:13;28.52;;;19.15;;
5674;SDS011;2860;54.284;10.158;2024-01-30T04:28:41;26.05;;;19.80;;
5674;SDS011;2860;54.284;10.158;2024-01-30T04:31:08;30.55;;;19.00;;
5674;SDS011;2860;54.284;10.158;2024-01-30T04:33:33;24.65;;;19.67;;
5674;SDS011;2860;54.284;10.158;2024-01-30T04:35:59;23.00;;;18.98;;
5674;SDS011;2860;54.284;10.158;2024-01-30T04:38:24;26.38;;;19.63;;
5674;SDS011;2860;54.284;10.158;2024-01-30T04:40:50;25.95;;;18.40;;
5674;SDS011;2860;54.284;10.158;2024-01-30T04:43:15;25.75;;;19.25;;
5674;SDS011;2860;54.284;10.158;2024-01-30T04:45:41;24.45;;;18.38;;
5674;SDS011;2860;54.284;10.158;2024-01-30T04:48:07;26.92;;;20.55;;
5674;SDS011;2860;54.284;10.158;2024-01-30T04:50:32;27.35;;;20.13;;
5674;SDS011;2860;54.284;10.158;2024-01-30T04:52:58;25.88;;;19.63;;
5674;SDS011;2860;54.284;10.158;2024-01-30T04:55:23;28.00;;;20.38;;
5674;SDS011;2860;54.284;10.158;2024-01-30T04:57:49;26.88;;;20.27;;
5674;SDS011;2860;54.284;10.158;2024-01-30T05:00:15;29.63;;;21.35;;
5674;SDS011;2860;54.284;10.158;2024-01-30T05:02:40;31.45;;;19.92;;
5674;SDS011;2860;54.284;10.158;2024-01-30T05:05:06;27.00;;;19.60;;
5674;SDS011;2860;54.284;10.158;2024-01-30T05:07:32;28.10;;;21.25;;
5674;SDS011;2860;54.284;10.158;2024-01-30T05:09:58;28.02;;;20.23;;
5674;SDS011;2860;54.284;10.158;2024-01-30T05:12:23;30.08;;;20.63;;
5674;SDS011;2860;54.284;10.158;2024-01-30T05:14:49;26.30;;;19.35;;
5674;SDS011;2860;54.284;10.158;2024-01-30T05:17:14;25.98;;;19.85;;
5674;SDS011;2860;54.284;10.158;2024-01-30T05:19:40;28.00;;;19.33;;
5674;SDS011;2860;54.284;10.158;2024-01-30T05:22:05;31.90;;;20.60;;
5674;SDS011;2860;54.284;10.158;2024-01-30T05:24:31;26.75;;;20.73;;
5674;SDS011;2860;54.284;10.158;2024-01-30T05:26:57;28.42;;;20.85;;
5674;SDS011;2860;54.284;10.158;2024-01-30T05:29:23;26.10;;;20.50;;
5674;SDS011;2860;54.284;10.158;2024-01-30T05:31:49;32.78;;;21.20;;
5674;SDS011;2860;54.284;10.158;2024-01-30T05:34:15;27.30;;;20.25;;
5674;SDS011;2860;54.284;10.158;2024-01-30T05:36:41;25.80;;;20.52;;
5674;SDS011;2860;54.284;10.158;2024-01-30T05:39:06;28.33;;;20.50;;
5674;SDS011;2860;54.284;10.158;2024-01-30T05:41:32;25.27;;;20.73;;
5674;SDS011;2860;54.284;10.158;2024-01-30T05:43:58;31.00;;;21.13;;
5674;SDS011;2860;54.284;10.158;2024-01-30T05:46:23;26.10;;;19.52;;
5674;SDS011;2860;54.284;10.158;2024-01-30T05:48:49;27.17;;;20.55;;
5674;SDS011;2860;54.284;10.158;2024-01-30T05:51:14;31.90;;;20.90;;
5674;SDS011;2860;54.284;10.158;2024-01-30T05:53:40;28.30;;;19.70;;
5674;SDS011;2860;54.284;10.158;2024-01-30T05:56:05;29.80;;;20.55;;
5674;SDS011;2860;54.284;10.158;2024-01-30T05:58:31;24.67;;;19.52;;
5674;SDS011;2860;54.284;10.158;2024-01-30T06:00:57;29.30;;;19.92;;
5674;SDS011;2860;54.284;10.158;2024-01-30T06:03:23;28.73;;;22.05;;
5674;SDS011;2860;54.284;10.158;2024-01-30T06:05:48;27.63;;;20.15;;
5674;SDS011;2860;54.284;10.158;2024-01-30T06:08:14;27.08;;;19.75;;
5674;SDS011;2860;54.284;10.158;2024-01-30T06:10:39;25.20;;;19.92;;
5674;SDS011;2860;54.284;10.158;2024-01-30T06:13:05;30.92;;;20.23;;
5674;SDS011;2860;54.284;10.158;2024-01-30T06:15:31;30.05;;;19.20;;
5674;SDS011;2860;54.284;10.158;2024-01-30T06:17:57;26.35;;;19.92;;
5674;SDS011;2860;54.284;10.158;2024-01-30T06:20:23;25.95;;;18.95;;
5674;SDS011;2860;54.284;10.158;2024-01-30T06:22:49;24.70;;;19.45;;
5674;SDS011;2860;54.284;10.158;2024-01-30T06:25:15;25.75;;;19.33;;
5674;SDS011;2860;54.284;10.158;2024-01-30T06:27:41;26.70;;;18.52;;
5674;SDS011;2860;54.284;10.158;2024-01-30T06:30:07;28.92;;;21.15;;
5674;SDS011;2860;54.284;10.158;2024-01-30T06:32:33;33.00;;;21.00;;
5674;SDS011;2860;54.284;10.158;2024-01-30T06:35:00;30.98;;;21.10;;
5674;SDS011;2860;54.284;10.158;2024-01-30T06:37:26;28.48;;;20.13;;
5674;SDS011;2860;54.284;10.158;2024-01-30T06:39:52;25.92;;;19.80;;
5674;SDS011;2860;54.284;10.158;2024-01-30T06:42:18;29.35;;;19.40;;
5674;SDS011;2860;54.284;10.158;2024-01-30T06:44:44;31.77;;;20.08;;
5674;SDS011;2860;54.284;10.158;2024-01-30T06:47:09;25.90;;;19.15;;
5674;SDS011;2860;54.284;10.158;2024-01-30T06:49:35;26.42;;;19.90;;
5674;SDS011;2860;54.284;10.158;2024-01-30T06:52:04;26.40;;;19.58;;
5674;SDS011;2860;54.284;10.158;2024-01-30T06:54:30;22.83;;;19.58;;
5674;SDS011;2860;54.284;10.158;2024-01-30T06:56:56;31.63;;;18.52;;
5674;SDS011;2860;54.284;10.158;2024-01-30T06:59:21;23.33;;;19.90;;
5674;SDS011;2860;54.284;10.158;2024-01-30T07:01:47;34.10;;;25.73;;
5674;SDS011;2860;54.284;10.158;2024-01-30T07:04:13;27.45;;;21.02;;
5674;SDS011;2860;54.284;10.158;2024-01-30T07:06:38;28.73;;;20.98;;
5674;SDS011;2860;54.284;10.158;2024-01-30T07:09:04;27.40;;;19.98;;
5674;SDS011;2860;54.284;10.158;2024-01-30T07:11:30;32.20;;;21.95;;
5674;SDS011;2860;54.284;10.158;2024-01-30T07:13:56;29.80;;;21.35;;
5674;SDS011;2860;54.284;10.158;2024-01-30T07:16:21;29.60;;;20.65;;
5674;SDS011;2860;54.284;10.158;2024-01-30T07:18:48;32.45;;;21.30;;
5674;SDS011;2860;54.284;10.158;2024-01-30T07:21:14;30.15;;;21.58;;
5674;SDS011;2860;54.284;10.158;2024-01-30T07:23:42;29.08;;;22.73;;
5674;SDS011;2860;54.284;10.158;2024-01-30T07:26:08;32.25;;;23.63;;
5674;SDS011;2860;54.284;10.158;2024-01-30T07:28:34;32.90;;;22.58;;
5674;SDS011;2860;54.284;10.158;2024-01-30T07:31:00;29.95;;;22.75;;
5674;SDS011;2860;54.284;10.158;2024-01-30T07:33:26;35.53;;;23.95;;
5674;SDS011;2860;54.284;10.158;2024-01-30T07:35:52;34.00;;;23.10;;
5674;SDS011;2860;54.284;10.158;2024-01-30T07:38:19;35.22;;;22.73;;
5674;SDS011;2860;54.284;10.158;2024-01-30T07:40:44;34.83;;;22.50;;
5674;SDS011;2860;54.284;10.158;2024-01-30T07:43:10;29.30;;;21.77;;
5674;SDS011;2860;54.284;10.158;2024-01-30T07:45:36;28.42;;;22.95;;
5674;SDS011;2860;54.284;10.158;2024-01-30T07:48:02;37.83;;;21.40;;
5674;SDS011;2860;54.284;10.158;2024-01-30T07:50:28;33.42;;;22.02;;
5674;SDS011;2860;54.284;10.158;2024-01-30T07:52:55;26.17;;;20.77;;
5674;SDS011;2860;54.284;10.158;2024-01-30T07:55:21;27.92;;;21.50;;
5674;SDS011;2860;54.284;10.158;2024-01-30T07:57:52;29.60;;;22.42;;
5674;SDS011;2860;54.284;10.158;2024-01-30T08:00:18;34.25;;;22.88;;
5674;SDS011;2860;54.284;10.158;2024-01-30T08:02:45;28.50;;;21.67;;
5674;SDS011;2860;54.284;10.158;2024-01-30T08:05:11;29.60;;;21.00;;
5674;SDS011;2860;54.284;10.158;2024-01-30T08:07:36;28.17;;;21.90;;
5674;SDS011;2860;54.284;10.158;2024-01-30T08:10:02;32.97;;;23.33;;
5674;SDS011;2860;54.284;10.158;2024-01-30T08:12:28;29.95;;;21.88;;
5674;SDS011;2860;54.284;10.158;2024-01-30T08:14:54;33.85;;;22.58;;
5674;SDS011;2860;54.284;10.158;2024-01-30T08:17:19;29.88;;;21.38;;
5674;SDS011;2860;54.284;10.158;2024-01-30T08:19:45;30.27;;;21.95;;
5674;SDS011;2860;54.284;10.158;2024-01-30T08:22:11;34.28;;;23.15;;
5674;SDS011;2860;54.284;10.158;2024-01-30T08:24:40;32.17;;;22.67;;
5674;SDS011;2860;54.284;10.158;2024-01-30T08:27:14;34.47;;;22.80;;
5674;SDS011;2860;54.284;10.158;2024-01-30T08:29:40;32.45;;;22.13;;
5674;SDS011;2860;54.284;10.158;2024-01-30T08:32:06;27.88;;;21.65;;
5674;SDS011;2860;54.284;10.158;2024-01-30T08:34:32;29.52;;;20.73;;
5674;SDS011;2860;54.284;10.158;2024-01-30T08:36:57;31.42;;;22.27;;
5674;SDS011;2860;54.284;10.158;2024-01-30T08:39:23;30.77;;;23.33;;
5674;SDS011;2860;54.284;10.158;2024-01-30T08:41:49;33.25;;;23.17;;
5674;SDS011;2860;54.284;10.158;2024-01-30T08:44:14;27.42;;;21.80;;
5674;SDS011;2860;54.284;10.158;2024-01-30T08:46:40;32.95;;;23.10;;
5674;SDS011;2860;54.284;10.158;2024-01-30T08:49:05;33.70;;;23.17;;
5674;SDS011;2860;54.284;10.158;2024-01-30T08:51:31;28.50;;;22.88;;
5674;SDS011;2860;54.284;10.158;2024-01-30T08:53:56;30.40;;;21.65;;
5674;SDS011;2860;54.284;10.158;2024-01-30T08:56:22;27.55;;;20.13;;
5674;SDS011;2860;54.284;10.158;2024-01-30T08:58:47;28.98;;;22.25;;
5674;SDS011;2860;54.284;10.158;2024-01-30T09:01:13;37.22;;;23.27;;
5674;SDS011;2860;54.284;10.158;2024-01-30T09:03:39;29.67;;;21.17;;
5674;SDS011;2860;54.284;10.158;2024-01-30T09:06:12;26.23;;;22.42;;
5674;SDS011;2860;54.284;10.158;2024-01-30T09:08:37;26.67;;;21.00;;
5674;SDS011;2860;54.284;10.158;2024-01-30T09:11:09;28.80;;;21.80;;
5674;SDS011;2860;54.284;10.158;2024-01-30T09:13:36;27.23;;;21.13;;
5674;SDS011;2860;54.284;10.158;2024-01-30T09:16:02;32.72;;;22.65;;
5674;SDS011;2860;54.284;10.158;2024-01-30T09:18:28;29.70;;;21.55;;
5674;SDS011;2860;54.284;10.158;2024-01-30T09:20:54;34.60;;;21.90;;
5674;SDS011;2860;54.284;10.158;2024-01-30T09:23:19;26.75;;;20.38;;
5674;SDS011;2860;54.284;10.158;2024-01-30T09:25:45;27.30;;;20.98;;
5674;SDS011;2860;54.284;10.158;2024-01-30T09:28:10;28.83;;;20.35;;
5674;SDS011;2860;54.284;10.158;2024-01-30T09:30:36;25.27;;;20.33;;
5674;SDS011;2860;54.284;10.158;2024-01-30T09:33:02;28.27;;;20.10;;
5674;SDS011;2860;54.284;10.158;2024-01-30T09:35:28;21.73;;;18.02;;
5674;SDS011;2860;54.284;10.158;2024-01-30T09:37:54;24.38;;;18.20;;
5674;SDS011;2860;54.284;10.158;2024-01-30T09:40:20;24.63;;;18.90;;
5674;SDS011;2860;54.284;10.158;2024-01-30T09:42:49;21.83;;;19.35;;
5674;SDS011;2860;54.284;10.158;2024-01-30T09:45:17;22.67;;;18.52;;
5674;SDS011;2860;54.284;10.158;2024-01-30T09:47:44;23.70;;;18.65;;
5674;SDS011;2860;54.284;10.158;2024-01-30T09:50:11;20.73;;;17.50;;
5674;SDS011;2860;54.284;10.158;2024-01-30T09:52:37;28.95;;;17.63;;
5674;SDS011;2860;54.284;10.158;2024-01-30T09:55:03;25.15;;;16.23;;
5674;SDS011;2860;54.284;10.158;2024-01-30T09:57:29;22.95;;;18.02;;
5674;SDS011;2860;54.284;10.158;2024-01-30T09:59:55;22.52;;;17.75;;
5674;SDS011;2860;54.284;10.158;2024-01-30T10:02:21;24.65;;;18.02;;
5674;SDS011;2860;54.284;10.158;2024-01-30T10:04:47;24.20;;;17.98;;
5674;SDS011;2860;54.284;10.158;2024-01-30T10:07:14;21.80;;;17.77;;
5674;SDS011;2860;54.284;10.158;2024-01-30T10:09:40;21.05;;;17.45;;
5674;SDS011;2860;54.284;10.158;2024-01-30T10:12:05;24.42;;;18.02;;
5674;SDS011;2860;54.284;10.158;2024-01-30T10:14:32;24.73;;;16.50;;
5674;SDS011;2860;54.284;10.158;2024-01-30T10:16:58;20.90;;;16.88;;
5674;SDS011;2860;54.284;10.158;2024-01-30T10:19:24;21.15;;;17.60;;
5674;SDS011;2860;54.284;10.158;2024-01-30T10:21:50;18.42;;;16.52;;
5674;SDS011;2860;54.284;10.158;2024-01-30T10:24:16;18.42;;;16.10;;
5674;SDS011;2860;54.284;10.158;2024-01-30T10:26:43;21.42;;;16.73;;
5674;SDS011;2860;54.284;10.158;2024-01-30T10:29:09;17.52;;;15.25;;
5674;SDS011;2860;54.284;10.158;2024-01-30T10:31:34;21.33;;;15.43;;
5674;SDS011;2860;54.284;10.158;2024-01-30T10:34:00;21.08;;;16.83;;
5674;SDS011;2860;54.284;10.158;2024-01-30T10:36:28;23.98;;;16.58;;
5674;SDS011;2860;54.284;10.158;2024-01-30T10:38:55;20.70;;;15.48;;
5674;SDS011;2860;54.284;10.158;2024-01-30T10:41:25;18.45;;;16.55;;
5674;SDS011;2860;54.284;10.158;2024-01-30T10:43:58;20.08;;;16.40;;
5674;SDS011;2860;54.284;10.158;2024-01-30T10:46:30;19.23;;;16.00;;
5674;SDS011;2860;54.284;10.158;2024-01-30T10:48:58;17.63;;;15.88;;
5674;SDS011;2860;54.284;10.158;2024-01-30T10:51:25;18.15;;;15.50;;
5674;SDS011;2860;54.284;10.158;2024-01-30T10:53:51;17.42;;;15.55;;
5674;SDS011;2860;54.284;10.158;2024-01-30T10:56:18;21.50;;;17.08;;
5674;SDS011;2860;54.284;10.158;2024-01-30T10:58:46;21.83;;;15.98;;
5674;SDS011;2860;54.284;10.158;2024-01-30T11:01:16;19.52;;;15.75;;
5674;SDS011;2860;54.284;10.158;2024-01-30T11:03:42;19.67;;;15.73;;
5674;SDS011;2860;54.284;10.158;2024-01-30T11:06:10;21.58;;;16.95;;
5674;SDS011;2860;54.284;10.158;2024-01-30T11:08:43;20.15;;;15.40;;
5674;SDS011;2860;54.284;10.158;2024-01-30T11:11:10;16.63;;;14.85;;
5674;SDS011;2860;54.284;10.158;2024-01-30T11:13:36;28.80;;;15.15;;
5674;SDS011;2860;54.284;10.158;2024-01-30T11:16:02;16.63;;;14.73;;
5674;SDS011;2860;54.284;10.158;2024-01-30T11:18:28;20.60;;;16.88;;
5674;SDS011;2860;54.284;10.158;2024-01-30T11:20:55;17.67;;;14.95;;
5674;SDS011;2860;54.284;10.158;2024-01-30T11:23:22;22.83;;;16.42;;
5674;SDS011;2860;54.284;10.158;2024-01-30T11:25:48;19.35;;;15.95;;
5674;SDS011;2860;54.284;10.158;2024-01-30T11:28:14;20.75;;;16.13;;
5674;SDS011;2860;54.284;10.158;2024-01-30T11:30:41;18.92;;;16.35;;
5674;SDS011;2860;54.284;10.158;2024-01-30T11:33:08;17.25;;;15.32;;
5674;SDS011;2860;54.284;10.158;2024-01-30T11:35:36;20.60;;;16.67;;
5674;SDS011;2860;54.284;10.158;2024-01-30T11:38:07;19.08;;;16.00;;
5674;SDS011;2860;54.284;10.158;2024-01-30T11:40:34;21.80;;;17.45;;
5674;SDS011;2860;54.284;10.158;2024-01-30T11:43:02;23.98;;;16.85;;
5674;SDS011;2860;54.284;10.158;2024-01-30T11:45:29;21.42;;;15.90;;
5674;SDS011;2860;54.284;10.158;2024-01-30T11:47:56;21.90;;;17.42;;
5674;SDS011;2860;54.284;10.158;2024-01-30T11:50:22;19.40;;;15.85;;
5674;SDS011;2860;54.284;10.158;2024-01-30T11:52:49;18.67;;;16.67;;
5674;SDS011;2860;54.284;10.158;2024-01-30T11:55:15;19.65;;;17.55;;
5674;SDS011;2860;54.284;10.158;2024-01-30T11:57:41;22.02;;;16.08;;
5674;SDS011;2860;54.284;10.158;2024-01-30T12:00:13;19.75;;;16.52;;
5674;SDS011;2860;54.284;10.158;2024-01-30T12:02:40;18.73;;;16.17;;
5674;SDS011;2860;54.284;10.158;2024-01-30T12:05:06;21.63;;;16.88;;
5674;SDS011;2860;54.284;10.158;2024-01-30T12:07:32;18.45;;;16.60;;
5674;SDS011;2860;54.284;10.158;2024-01-30T12:09:58;18.85;;;16.95;;
5674;SDS011;2860;54.284;10.158;2024-01-30T12:12:28;19.70;;;16.73;;
5674;SDS011;2860;54.284;10.158;2024-01-30T12:14:54;19.52;;;15.82;;
5674;SDS011;2860;54.284;10.158;2024-01-30T12:17:28;26.45;;;16.05;;
5674;SDS011;2860;54.284;10.158;2024-01-30T12:22:45;21.48;;;17.48;;
5674;SDS011;2860;54.284;10.158;2024-01-30T12:25:13;18.45;;;16.05;;
5674;SDS011;2860;54.284;10.158;2024-01-30T12:27:42;18.77;;;16.15;;
5674;SDS011;2860;54.284;10.158;2024-01-30T12:30:08;17.70;;;15.90;;
5674;SDS011;2860;54.284;10.158;2024-01-30T12:32:35;19.75;;;15.60;;
5674;SDS011;2860;54.284;10.158;2024-01-30T12:35:01;21.67;;;17.35;;
5674;SDS011;2860;54.284;10.158;2024-01-30T12:37:27;17.27;;;15.50;;
5674;SDS011;2860;54.284;10.158;2024-01-30T12:39:54;29.55;;;16.08;;
5674;SDS011;2860;54.284;10.158;2024-01-30T12:42:20;20.33;;;16.52;;
5674;SDS011;2860;54.284;10.158;2024-01-30T12:44:49;20.10;;;15.02;;
5674;SDS011;2860;54.284;10.158;2024-01-30T12:47:15;21.48;;;17.02;;
5674;SDS011;2860;54.284;10.158;2024-01-30T12:49:41;20.25;;;16.40;;
5674;SDS011;2860;54.284;10.158;2024-01-30T12:52:09;18.65;;;16.77;;
5674;SDS011;2860;54.284;10.158;2024-01-30T12:54:35;19.67;;;17.02;;
5674;SDS011;2860;54.284;10.158;2024-01-30T12:57:00;24.55;;;16.13;;
5674;SDS011;2860;54.284;10.158;2024-01-30T12:59:26;21.75;;;17.75;;
5674;SDS011;2860;54.284;10.158;2024-01-30T13:01:51;17.80;;;15.85;;
5674;SDS011;2860;54.284;10.158;2024-01-30T13:04:17;19.05;;;16.00;;
5674;SDS011;2860;54.284;10.158;2024-01-30T13:06:42;20.90;;;16.85;;
5674;SDS011;2860;54.284;10.158;2024-01-30T13:09:08;20.48;;;17.83;;
5674;SDS011;2860;54.284;10.158;2024-01-30T13:11:34;17.83;;;15.98;;
5674;SDS011;2860;54.284;10.158;2024-01-30T13:13:59;21.88;;;16.50;;
5674;SDS011;2860;54.284;10.158;2024-01-30T13:16:25;20.95;;;15.77;;
5674;SDS011;2860;54.284;10.158;2024-01-30T13:18:51;19.33;;;16.20;;
5674;SDS011;2860;54.284;10.158;2024-01-30T13:21:16;22.02;;;16.65;;
5674;SDS011;2860;54.284;10.158;2024-01-30T13:23:42;19.48;;;16.77;;
5674;SDS011;2860;54.284;10.158;2024-01-30T13:26:08;18.77;;;14.75;;
5674;SDS011;2860;54.284;10.158;2024-01-30T13:28:33;18.40;;;16.50;;
5674;SDS011;2860;54.284;10.158;2024-01-30T13:30:59;19.25;;;16.05;;
5674;SDS011;2860;54.284;10.158;2024-01-30T13:33:24;22.50;;;16.92;;
5674;SDS011;2860;54.284;10.158;2024-01-30T13:35:51;20.95;;;16.70;;
5674;SDS011;2860;54.284;10.158;2024-01-30T13:38:16;19.08;;;16.73;;
5674;SDS011;2860;54.284;10.158;2024-01-30T13:40:42;18.10;;;15.32;;
5674;SDS011;2860;54.284;10.158;2024-01-30T13:43:08;20.48;;;16.02;;
5674;SDS011;2860;54.284;10.158;2024-01-30T13:45:33;19.90;;;17.70;;
5674;SDS011;2860;54.284;10.158;2024-01-30T13:47:59;18.63;;;16.35;;
5674;SDS011;2860;54.284;10.158;2024-01-30T13:50:24;24.88;;;16.45;;
5674;SDS011;2860;54.284;10.158;2024-01-30T13:52:50;22.85;;;16.63;;
5674;SDS011;2860;54.284;10.158;2024-01-30T13:55:15;18.50;;;16.55;;
5674;SDS011;2860;54.284;10.158;2024-01-30T13:57:41;20.98;;;16.45;;
5674;SDS011;2860;54.284;10.158;2024-01-30T14:00:06;22.50;;;16.95;;
5674;SDS011;2860;54.284;10.158;2024-01-30T14:02:32;18.65;;;16.52;;
5674;SDS011;2860;54.284;10.158;2024-01-30T14:04:58;20.85;;;16.42;;
5674;SDS011;2860;54.284;10.158;2024-01-30T14:07:23;25.23;;;17.58;;
5674;SDS011;2860;54.284;10.158;2024-01-30T14:09:49;24.08;;;17.95;;
5674;SDS011;2860;54.284;10.158;2024-01-30T14:12:15;19.63;;;17.27;;
5674;SDS011;2860;54.284;10.158;2024-01-30T14:14:40;23.70;;;17.02;;
5674;SDS011;2860;54.284;10.158;2024-01-30T14:17:06;22.80;;;17.42;;
5674;SDS011;2860;54.284;10.158;2024-01-30T14:19:32;21.33;;;17.33;;
5674;SDS011;2860;54.284;10.158;2024-01-30T14:21:59;19.45;;;15.93;;
5674;SDS011;2860;54.284;10.158;2024-01-30T14:24:24;24.95;;;17.20;;
5674;SDS011;2860;54.284;10.158;2024-01-30T14:26:50;22.45;;;16.23;;
5674;SDS011;2860;54.284;10.158;2024-01-30T14:29:16;23.17;;;16.27;;